createdAt,value
2018-01-07T00:00:16.537Z,99512.41
2018-01-07T00:02:44.107Z,99506.42
2018-01-07T00:05:11.746Z,99513.53
2018-01-07T00:07:39.315Z,99520.74
2018-01-07T00:10:06.885Z,99523.03
2018-01-07T00:12:34.462Z,99520.29
2018-01-07T00:15:02.249Z,99529.55
2018-01-07T00:17:29.891Z,99531.22
2018-01-07T00:19:57.457Z,99536.28
2018-01-07T00:22:25.019Z,99530.80
2018-01-07T00:24:52.617Z,99526.75
2018-01-07T00:27:20.182Z,99530.07
2018-01-07T00:29:47.795Z,99533.14
2018-01-07T00:32:15.466Z,99533.59
2018-01-07T00:34:43.294Z,99529.58
2018-01-07T00:37:10.850Z,99535.35
2018-01-07T00:39:38.452Z,99539.13
2018-01-07T00:42:06.247Z,99544.70
2018-01-07T00:44:33.814Z,99546.83
2018-01-07T00:47:01.394Z,99550.23
2018-01-07T00:49:28.992Z,99553.07
2018-01-07T00:51:56.687Z,99557.56
2018-01-07T00:54:24.307Z,99561.75
2018-01-07T00:56:52.054Z,99559.41
2018-01-07T00:59:19.634Z,99558.68
2018-01-07T01:01:47.352Z,99560.50
2018-01-07T01:04:15.022Z,99553.67
2018-01-07T01:06:42.719Z,99554.70
2018-01-07T01:09:10.545Z,99562.83
2018-01-07T01:11:38.364Z,99564.27
2018-01-07T01:14:06.184Z,99554.13
2018-01-07T01:16:33.901Z,99557.48
2018-01-07T01:19:01.516Z,99557.19
2018-01-07T01:21:29.238Z,99559.92
2018-01-07T01:23:56.956Z,99562.69
2018-01-07T01:26:24.522Z,99569.07
2018-01-07T01:28:52.078Z,99561.24
2018-01-07T01:31:19.822Z,99569.81
2018-01-07T01:33:47.628Z,99577.64
2018-01-07T01:36:15.176Z,99579.42
2018-01-07T01:38:42.745Z,99577.55
2018-01-07T01:41:10.367Z,99565.23
2018-01-07T01:43:37.984Z,99566.95
2018-01-07T01:46:05.563Z,99576.00
2018-01-07T01:48:33.310Z,99572.67
2018-01-07T01:51:00.884Z,99566.02
2018-01-07T01:53:28.668Z,99567.15
2018-01-07T01:55:57.120Z,99563.41
2018-01-07T01:58:24.686Z,99566.84
2018-01-07T02:00:52.250Z,99565.77
2018-01-07T02:03:19.831Z,99568.41
2018-01-07T02:05:47.394Z,99570.50
2018-01-07T02:08:15.143Z,99570.30
2018-01-07T02:10:42.885Z,99568.98
2018-01-07T02:13:10.598Z,99566.56
2018-01-07T02:15:38.181Z,99566.70
2018-01-07T02:18:05.761Z,99566.28
2018-01-07T02:20:33.450Z,99564.81
2018-01-07T02:23:01.189Z,99562.00
2018-01-07T02:25:28.751Z,99561.28
2018-01-07T02:27:56.334Z,99552.34
2018-01-07T02:30:23.898Z,99555.14
2018-01-07T02:32:51.662Z,99546.22
2018-01-07T02:35:19.228Z,99554.00
2018-01-07T02:37:46.790Z,99549.36
2018-01-07T02:40:14.518Z,99547.55
2018-01-07T02:42:42.333Z,99545.95
2018-01-07T02:45:09.953Z,99538.56
2018-01-07T02:47:37.514Z,99548.78
2018-01-07T02:50:05.090Z,99551.84
2018-01-07T02:52:32.905Z,99556.08
2018-01-07T02:55:00.625Z,99551.56
2018-01-07T02:57:28.307Z,99550.61
2018-01-07T02:59:55.977Z,99545.55
2018-01-07T03:02:23.542Z,99547.88
2018-01-07T03:04:51.298Z,99550.89
2018-01-07T03:07:18.863Z,99552.52
2018-01-07T03:09:46.563Z,99554.86
2018-01-07T03:12:14.142Z,99559.78
2018-01-07T03:14:41.867Z,99573.19
2018-01-07T03:17:09.569Z,99574.40
2018-01-07T03:19:37.127Z,99584.92
2018-01-07T03:22:05.023Z,99593.94
2018-01-07T03:24:32.588Z,99592.98
2018-01-07T03:27:00.154Z,99597.79
2018-01-07T03:29:27.978Z,99589.51
2018-01-07T03:31:55.543Z,99593.23
2018-01-07T03:34:23.154Z,99600.36
2018-01-07T03:36:50.931Z,99594.67
2018-01-07T03:39:18.750Z,99600.50
2018-01-07T03:41:46.318Z,99605.80
2018-01-07T03:44:14.086Z,99612.14
2018-01-07T03:46:41.715Z,99613.27
2018-01-07T03:49:09.278Z,99613.22
2018-01-07T03:51:36.842Z,99620.55
2018-01-07T03:54:04.416Z,99610.44
2018-01-07T03:56:32.175Z,99609.16
2018-01-07T03:58:59.993Z,99603.49
2018-01-07T04:01:27.596Z,99607.36
2018-01-07T04:03:55.151Z,99612.70
2018-01-07T04:06:22.724Z,99608.19
2018-01-07T04:08:51.154Z,99613.11
2018-01-07T04:11:18.771Z,99611.21
2018-01-07T04:13:46.466Z,99614.27
2018-01-07T04:16:14.031Z,99615.95
2018-01-07T04:21:08.617Z,99631.67
2018-01-07T04:23:36.240Z,99631.02
2018-01-07T04:26:03.813Z,99638.72
2018-01-07T04:28:31.370Z,99635.59
2018-01-07T04:30:58.942Z,99640.85
2018-01-07T04:33:26.522Z,99643.00
2018-01-07T04:35:54.142Z,99645.49
2018-01-07T04:38:21.702Z,99651.13
2018-01-07T04:40:49.497Z,99667.14
2018-01-07T04:43:17.216Z,99667.92
2018-01-07T04:45:44.779Z,99673.32
2018-01-07T04:48:12.403Z,99674.52
2018-01-07T04:50:39.966Z,99632.22
2018-01-07T04:53:07.507Z,99684.16
2018-01-07T04:55:35.215Z,99686.94
2018-01-07T04:58:02.773Z,99690.69
2018-01-07T05:00:30.390Z,99692.59
2018-01-07T05:02:57.950Z,99691.30
2018-01-07T05:05:25.590Z,99690.66
2018-01-07T05:07:53.174Z,99691.29
2018-01-07T05:10:20.734Z,99691.84
2018-01-07T05:12:48.630Z,99691.48
2018-01-07T05:15:16.193Z,99690.25
2018-01-07T05:17:43.758Z,99690.07
2018-01-07T05:20:11.375Z,99680.75
2018-01-07T05:22:38.934Z,99698.52
2018-01-07T05:25:06.719Z,99694.36
2018-01-07T05:27:34.433Z,99698.14
2018-01-07T05:30:02.156Z,99699.41
2018-01-07T05:32:29.731Z,99702.04
2018-01-07T05:34:57.293Z,99707.31
2018-01-07T05:37:24.913Z,99716.64
2018-01-07T05:39:52.480Z,99711.74
2018-01-07T05:42:20.191Z,99717.17
2018-01-07T05:44:47.742Z,99719.49
2018-01-07T05:47:15.486Z,99723.94
2018-01-07T05:49:43.094Z,99727.13
2018-01-07T05:52:10.662Z,99723.23
2018-01-07T05:54:38.435Z,99729.19
2018-01-07T05:57:06.254Z,99734.64
2018-01-07T05:59:33.974Z,99739.68
2018-01-07T06:02:01.627Z,99744.34
2018-01-07T06:04:29.191Z,99741.04
2018-01-07T06:06:56.926Z,99743.38
2018-01-07T06:09:25.133Z,99746.50
2018-01-07T06:11:52.842Z,99759.14
2018-01-07T06:14:20.463Z,99762.28
2018-01-07T06:16:48.023Z,99772.13
2018-01-07T06:19:15.670Z,99767.12
2018-01-07T06:21:43.408Z,99769.11
2018-01-07T06:24:11.123Z,99772.21
2018-01-07T06:26:38.750Z,99780.50
2018-01-07T06:29:06.642Z,99786.23
2018-01-07T06:31:34.202Z,99784.94
2018-01-07T06:34:02.909Z,99785.13
2018-01-07T06:36:30.632Z,99788.66
2018-01-07T06:38:58.468Z,99781.48
2018-01-07T06:41:26.286Z,99778.92
2018-01-07T06:43:53.859Z,99793.66
2018-01-07T06:46:21.622Z,99796.37
2018-01-07T06:48:49.310Z,99808.68
2018-01-07T06:51:17.059Z,99813.18
2018-01-07T06:53:44.622Z,99814.52
2018-01-07T06:56:12.201Z,99814.01
2018-01-07T06:58:39.781Z,99821.13
2018-01-07T07:01:07.331Z,99818.16
2018-01-07T07:03:35.046Z,99823.66
2018-01-07T07:06:02.766Z,99833.08
2018-01-07T07:08:30.485Z,99832.41
2018-01-07T07:10:58.303Z,99827.05
2018-01-07T07:13:25.847Z,99840.44
2018-01-07T07:15:53.459Z,99839.48
2018-01-07T07:18:21.148Z,99841.63
2018-01-07T07:20:48.710Z,99844.15
2018-01-07T07:23:16.281Z,99837.98
2018-01-07T07:25:43.854Z,99839.30
2018-01-07T07:28:11.614Z,99834.52
2018-01-07T07:30:39.183Z,99842.89
2018-01-07T07:33:06.964Z,99845.36
2018-01-07T07:35:34.545Z,99843.11
2018-01-07T07:38:02.214Z,99844.67
2018-01-07T07:40:29.825Z,99832.54
2018-01-07T07:42:57.638Z,99835.44
2018-01-07T07:45:25.202Z,99837.74
2018-01-07T07:47:52.794Z,99845.69
2018-01-07T07:50:20.591Z,99839.13
2018-01-07T07:52:48.329Z,99837.33
2018-01-07T07:55:15.893Z,99830.80
2018-01-07T07:57:43.552Z,99834.39
2018-01-07T08:00:11.154Z,99836.17
2018-01-07T08:02:38.726Z,99836.39
2018-01-07T08:05:06.384Z,99836.08
2018-01-07T08:07:33.954Z,99836.36
2018-01-07T08:10:01.735Z,99835.81
2018-01-07T08:12:29.334Z,99843.31
2018-01-07T08:14:56.899Z,99836.77
2018-01-07T08:17:24.511Z,99840.43
2018-01-07T08:19:52.076Z,99844.95
2018-01-07T08:22:19.674Z,99848.05
2018-01-07T08:24:47.442Z,99848.64
2018-01-07T08:27:15.010Z,99850.66
2018-01-07T08:29:42.632Z,99852.80
2018-01-07T08:32:10.288Z,99854.03
2018-01-07T08:34:38.114Z,99848.47
2018-01-07T08:37:05.694Z,99843.78
2018-01-07T08:39:33.267Z,99847.30
2018-01-07T08:42:01.049Z,99854.45
2018-01-07T08:44:28.625Z,99858.60
2018-01-07T08:46:56.251Z,99862.84
2018-01-07T08:49:24.023Z,99859.98
2018-01-07T08:51:51.610Z,99863.87
2018-01-07T08:54:19.245Z,99857.09
2018-01-07T08:56:46.934Z,99868.65
2018-01-07T08:59:14.586Z,99867.84
2018-01-07T09:01:42.177Z,99875.11
2018-01-07T09:04:09.762Z,99868.60
2018-01-07T09:06:37.422Z,99869.74
2018-01-07T09:09:05.064Z,99854.81
2018-01-07T09:11:32.655Z,99858.71
2018-01-07T09:14:00.387Z,99860.65
2018-01-07T09:16:28.131Z,99856.17
2018-01-07T09:18:55.774Z,99853.06
2018-01-07T09:21:23.536Z,99853.44
2018-01-07T09:23:51.118Z,99857.67
2018-01-07T09:26:18.694Z,99851.54
2018-01-07T09:28:46.294Z,99840.66
2018-01-07T09:31:14.229Z,99835.59
2018-01-07T09:33:41.799Z,99836.29
2018-01-07T09:36:09.536Z,99834.97
2018-01-07T09:38:37.110Z,99830.73
2018-01-07T09:41:04.684Z,99833.73
2018-01-07T09:43:32.413Z,99827.34
2018-01-07T09:45:59.983Z,99820.13
2018-01-07T09:48:27.755Z,99821.50
2018-01-07T09:50:55.340Z,99815.59
2018-01-07T09:53:23.052Z,99817.86
2018-01-07T09:55:50.711Z,99820.48
2018-01-07T09:58:18.275Z,99808.95
2018-01-07T10:00:45.847Z,99822.25
2018-01-07T10:03:13.432Z,99814.31
2018-01-07T10:05:41.053Z,99818.48
2018-01-07T10:08:08.655Z,99813.47
2018-01-07T10:10:36.618Z,99811.28
2018-01-07T10:13:04.196Z,99806.48
2018-01-07T10:15:31.767Z,99795.61
2018-01-07T10:17:59.572Z,99796.03
2018-01-07T10:20:27.199Z,99796.21
2018-01-07T10:22:54.775Z,99798.48
2018-01-07T10:27:56.336Z,99794.89
2018-01-07T10:30:23.914Z,99796.44
2018-01-07T10:32:51.534Z,99790.13
2018-01-07T10:35:19.320Z,99791.92
2018-01-07T10:37:47.032Z,99792.22
2018-01-07T10:40:14.747Z,99796.78
2018-01-07T10:42:42.319Z,99793.05
2018-01-07T10:45:09.951Z,99789.80
2018-01-07T10:47:37.518Z,99793.42
2018-01-07T10:50:05.086Z,99794.80
2018-01-07T10:52:32.739Z,99795.76
2018-01-07T10:55:00.334Z,99797.38
2018-01-07T10:57:27.974Z,99799.14
2018-01-07T10:59:55.790Z,99796.84
2018-01-07T11:02:29.115Z,99801.56
2018-01-07T11:04:56.855Z,99797.97
2018-01-07T11:07:24.486Z,99800.47
2018-01-07T11:09:52.067Z,99803.67
2018-01-07T11:12:19.634Z,99797.23
2018-01-07T11:14:47.319Z,99795.70
2018-01-07T11:17:14.935Z,99792.56
2018-01-07T11:19:42.504Z,99793.36
2018-01-07T11:22:10.075Z,99796.82
2018-01-07T11:24:37.659Z,99794.55
2018-01-07T11:27:05.274Z,99799.30
2018-01-07T11:29:32.843Z,99803.02
2018-01-07T11:32:00.418Z,99804.16
2018-01-07T11:34:28.082Z,99805.28
2018-01-07T11:36:55.671Z,99801.34
2018-01-07T11:39:23.398Z,99811.08
2018-01-07T11:41:51.047Z,99805.23
2018-01-07T11:44:18.810Z,99814.36
2018-01-07T11:46:46.367Z,99811.13
2018-01-07T11:49:14.018Z,99811.84
2018-01-07T11:51:41.638Z,99803.64
2018-01-07T11:54:09.407Z,99812.13
2018-01-07T11:56:36.986Z,99809.32
2018-01-07T11:59:04.665Z,99811.70
2018-01-07T12:01:32.468Z,99811.34
2018-01-07T12:04:00.166Z,99810.58
2018-01-07T12:06:27.787Z,99815.45
2018-01-07T12:08:55.824Z,99816.03
2018-01-07T12:11:23.432Z,99813.82
2018-01-07T12:13:51.011Z,99825.55
2018-01-07T12:16:18.883Z,99828.89
2018-01-07T12:18:46.461Z,99833.57
2018-01-07T12:21:14.317Z,99841.11
2018-01-07T12:23:41.977Z,99842.34
2018-01-07T12:26:09.551Z,99838.78
2018-01-07T12:28:37.190Z,99806.56
2018-01-07T12:31:04.770Z,99834.98
2018-01-07T12:33:32.346Z,99831.77
2018-01-07T12:35:59.930Z,99839.03
2018-01-07T12:38:27.501Z,99837.98
2018-01-07T12:40:55.138Z,99840.77
2018-01-07T12:43:22.722Z,99837.25
2018-01-07T12:45:50.342Z,99845.25
2018-01-07T12:48:17.903Z,99845.49
2018-01-07T12:50:45.447Z,99839.52
2018-01-07T12:53:13.066Z,99845.27
2018-01-07T12:55:40.771Z,99842.83
2018-01-07T12:58:08.341Z,99851.48
2018-01-07T13:00:35.983Z,99853.57
2018-01-07T13:03:03.635Z,99857.06
2018-01-07T13:05:31.268Z,99855.78
2018-01-07T13:07:58.833Z,99845.91
2018-01-07T13:10:26.398Z,99855.68
2018-01-07T13:12:53.995Z,99852.94
2018-01-07T13:15:21.569Z,99849.88
2018-01-07T13:17:49.358Z,99850.69
2018-01-07T13:20:17.144Z,99858.69
2018-01-07T13:22:44.964Z,99862.09
2018-01-07T13:25:12.536Z,99859.71
2018-01-07T13:27:40.136Z,99858.50
2018-01-07T13:30:07.810Z,99855.09
2018-01-07T13:32:35.382Z,99863.56
2018-01-07T13:35:03.011Z,99864.33
2018-01-07T13:37:30.638Z,99865.59
2018-01-07T13:39:58.243Z,99862.89
2018-01-07T13:42:25.934Z,99863.87
2018-01-07T13:44:53.495Z,99868.48
2018-01-07T13:47:21.124Z,99872.94
2018-01-07T13:49:48.850Z,99878.92
2018-01-07T13:52:16.531Z,99886.17
2018-01-07T13:54:44.690Z,99883.57
2018-01-07T13:57:12.417Z,99890.20
2018-01-07T13:59:40.018Z,99887.15
2018-01-07T14:02:07.852Z,99891.34
2018-01-07T14:04:35.471Z,99893.98
2018-01-07T14:07:03.374Z,99901.87
2018-01-07T14:09:30.966Z,99903.39
2018-01-07T14:11:58.622Z,99909.13
2018-01-07T14:14:26.475Z,99913.95
2018-01-07T14:16:54.992Z,99913.70
2018-01-07T14:19:22.787Z,99921.50
2018-01-07T14:21:50.363Z,99916.92
2018-01-07T14:24:18.094Z,99919.45
2018-01-07T14:26:45.939Z,99913.60
2018-01-07T14:29:13.757Z,99914.97
2018-01-07T14:31:41.576Z,99916.05
2018-01-07T14:34:09.394Z,99917.92
2018-01-07T14:36:36.989Z,99928.05
2018-01-07T14:39:04.705Z,99929.19
2018-01-07T14:41:32.357Z,99937.28
2018-01-07T14:43:59.989Z,99915.64
2018-01-07T14:46:27.678Z,99936.42
2018-01-07T14:48:55.487Z,99940.41
2018-01-07T14:51:23.069Z,99937.97
2018-01-07T14:53:50.857Z,99944.88
2018-01-07T14:56:18.515Z,99938.50
2018-01-07T14:58:46.276Z,99942.26
2018-01-07T15:01:13.858Z,99936.45
2018-01-07T15:03:41.454Z,99944.23
2018-01-07T15:06:09.007Z,99939.24
2018-01-07T15:08:36.652Z,99933.84
2018-01-07T15:11:04.233Z,99932.03
2018-01-07T15:13:31.806Z,99937.59
2018-01-07T15:15:59.600Z,99933.84
2018-01-07T15:18:27.419Z,99941.44
2018-01-07T15:20:55.132Z,99939.67
2018-01-07T15:23:22.718Z,99941.31
2018-01-07T15:25:50.290Z,99946.41
2018-01-07T15:28:18.001Z,99939.14
2018-01-07T15:30:45.810Z,99945.62
2018-01-07T15:33:13.630Z,99944.83
2018-01-07T15:35:41.376Z,99945.14
2018-01-07T15:38:08.955Z,99945.50
2018-01-07T15:40:36.532Z,99955.37
2018-01-07T15:43:04.197Z,99955.85
2018-01-07T15:45:31.873Z,99961.62
2018-01-07T15:47:59.466Z,99956.13
2018-01-07T15:50:27.256Z,99975.17
2018-01-07T15:52:55.174Z,99977.75
2018-01-07T15:55:22.779Z,99976.30
2018-01-07T15:57:50.462Z,99971.67
2018-01-07T16:00:18.033Z,99969.44
2018-01-07T16:02:45.696Z,99966.34
2018-01-07T16:05:13.324Z,99977.59
2018-01-07T16:07:40.898Z,99982.30
2018-01-07T16:10:08.693Z,99980.50
2018-01-07T16:12:36.318Z,99984.94
2018-01-07T16:15:04.062Z,99987.71
2018-01-07T16:17:31.727Z,99983.55
2018-01-07T16:19:59.324Z,99999.11
2018-01-07T16:22:27.051Z,99989.50
2018-01-07T16:24:54.629Z,99989.48
2018-01-07T16:27:22.230Z,99994.00
2018-01-07T16:29:49.866Z,99997.59
2018-01-07T16:32:17.424Z,100003.67
2018-01-07T16:34:45.283Z,100009.55
2018-01-07T16:37:13.099Z,100004.81
2018-01-07T16:39:40.678Z,100011.98
2018-01-07T16:42:08.275Z,100014.63
2018-01-07T16:44:35.862Z,100013.44
2018-01-07T16:47:03.512Z,100019.48
2018-01-07T16:49:31.289Z,100022.64
2018-01-07T16:51:58.870Z,100025.82
2018-01-07T16:54:26.483Z,100029.27
2018-01-07T16:56:54.214Z,100030.53
2018-01-07T16:59:22.064Z,100033.84
2018-01-07T17:01:49.848Z,100036.82
2018-01-07T17:04:17.435Z,100042.58
2018-01-07T17:06:45.098Z,100043.21
2018-01-07T17:09:12.719Z,100045.38
2018-01-07T17:11:40.470Z,100045.41
2018-01-07T17:14:08.271Z,100049.26
2018-01-07T17:16:36.093Z,100056.27
2018-01-07T17:19:03.801Z,100046.14
2018-01-07T17:21:31.387Z,100067.97
2018-01-07T17:23:59.040Z,100068.06
2018-01-07T17:26:26.753Z,100068.23
2018-01-07T17:28:54.582Z,100068.60
2018-01-07T17:31:22.194Z,100079.59
2018-01-07T17:33:49.870Z,100080.16
2018-01-07T17:36:17.511Z,100089.34
2018-01-07T17:38:45.133Z,100091.70
2018-01-07T17:41:12.715Z,100095.31
2018-01-07T17:43:40.297Z,100091.81
2018-01-07T17:46:07.879Z,100083.58
2018-01-07T17:48:35.724Z,100090.39
2018-01-07T17:51:03.428Z,100090.36
2018-01-07T17:53:31.275Z,100096.44
2018-01-07T17:55:58.900Z,100095.42
2018-01-07T17:58:26.466Z,100098.20
2018-01-07T18:00:54.315Z,100100.86
2018-01-07T18:03:21.902Z,100102.23
2018-01-07T18:05:49.574Z,100095.88
2018-01-07T18:08:17.166Z,100101.05
2018-01-07T18:10:44.988Z,100104.97
2018-01-07T18:13:12.636Z,100111.00
2018-01-07T18:15:40.211Z,100104.56
2018-01-07T18:18:07.833Z,100111.02
2018-01-07T18:20:35.663Z,100112.19
2018-01-07T18:23:03.235Z,100111.11
2018-01-07T18:25:30.865Z,100113.46
2018-01-07T18:27:58.429Z,100110.83
2018-01-07T18:30:26.023Z,100121.97
2018-01-07T18:32:53.602Z,100119.74
2018-01-07T18:35:21.368Z,100122.72
2018-01-07T18:37:49.263Z,100122.91
2018-01-07T18:40:16.979Z,100121.58
2018-01-07T18:42:44.574Z,100117.39
2018-01-07T18:45:12.316Z,100133.71
2018-01-07T18:47:39.951Z,100141.51
2018-01-07T18:50:07.646Z,100149.16
2018-01-07T18:52:35.488Z,100155.41
2018-01-07T18:55:03.315Z,100155.87
2018-01-07T18:57:30.901Z,100151.29
2018-01-07T18:59:58.523Z,100148.13
2018-01-07T19:02:26.178Z,100160.19
2018-01-07T19:04:53.801Z,100161.57
2018-01-07T19:07:21.391Z,100155.02
2018-01-07T19:09:49.017Z,100162.78
2018-01-07T19:12:16.602Z,100164.76
2018-01-07T19:14:44.435Z,100167.30
2018-01-07T19:17:12.150Z,100165.27
2018-01-07T19:19:39.866Z,100175.28
2018-01-07T19:22:07.505Z,100177.81
2018-01-07T19:24:35.078Z,100183.52
2018-01-07T19:27:02.710Z,100179.17
2018-01-07T19:29:30.300Z,100182.18
2018-01-07T19:31:57.875Z,100181.61
2018-01-07T19:34:25.707Z,100179.17
2018-01-07T19:36:53.294Z,100187.62
2018-01-07T19:39:21.033Z,100185.38
2018-01-07T19:41:48.869Z,100188.95
2018-01-07T19:44:16.444Z,100200.16
2018-01-07T19:46:44.194Z,100212.68
2018-01-07T19:49:12.013Z,100208.46
2018-01-07T19:51:39.659Z,100209.77
2018-01-07T19:54:07.330Z,100206.66
2018-01-07T19:56:34.902Z,100202.59
2018-01-07T19:59:02.684Z,100209.16
2018-01-07T20:01:30.388Z,100205.58
2018-01-07T20:03:58.122Z,100220.36
2018-01-07T20:06:25.705Z,100230.53
2018-01-07T20:08:53.349Z,100232.33
2018-01-07T20:11:20.952Z,100235.20
2018-01-07T20:13:48.520Z,100241.38
2018-01-07T20:16:16.156Z,100248.36
2018-01-07T20:18:43.736Z,100246.47
2018-01-07T20:21:11.534Z,100252.95
2018-01-07T20:23:39.366Z,100245.22
2018-01-07T20:26:06.990Z,100244.13
2018-01-07T20:28:34.622Z,100250.03
2018-01-07T20:31:02.204Z,100246.23
2018-01-07T20:33:29.778Z,100254.56
2018-01-07T20:35:57.400Z,100256.42
2018-01-07T20:38:24.980Z,100259.00
2018-01-07T20:40:52.791Z,100253.06
2018-01-07T20:43:20.354Z,100249.94
2018-01-07T20:45:47.930Z,100244.64
2018-01-07T20:48:15.746Z,100252.12
2018-01-07T20:50:43.330Z,100254.60
2018-01-07T20:53:11.073Z,100260.22
2018-01-07T20:55:38.900Z,100267.67
2018-01-07T20:58:06.483Z,100271.55
2018-01-07T21:00:34.336Z,100277.92
2018-01-07T21:03:01.902Z,100272.55
2018-01-07T21:05:29.635Z,100271.83
2018-01-07T21:07:57.383Z,100267.40
2018-01-07T21:10:25.210Z,100267.85
2018-01-07T21:12:53.028Z,100264.88
2018-01-07T21:15:20.614Z,100257.00
2018-01-07T21:17:48.233Z,100256.36
2018-01-07T21:20:15.806Z,100251.45
2018-01-07T21:22:43.600Z,100251.14
2018-01-07T21:25:11.205Z,100248.67
2018-01-07T21:27:38.936Z,100253.31
2018-01-07T21:30:06.707Z,100245.37
2018-01-07T21:32:34.472Z,100261.72
2018-01-07T21:35:02.047Z,100259.75
2018-01-07T21:37:29.809Z,100263.75
2018-01-07T21:39:57.378Z,100261.22
2018-01-07T21:42:25.010Z,100267.45
2018-01-07T21:44:52.620Z,100262.86
2018-01-07T21:47:20.198Z,100249.14
2018-01-07T21:49:47.999Z,100256.03
2018-01-07T21:52:15.573Z,100258.55
2018-01-07T21:54:43.202Z,100262.16
2018-01-07T21:57:10.782Z,100260.20
2018-01-07T22:02:45.510Z,100250.05
2018-01-07T22:05:15.982Z,100252.47
2018-01-07T22:07:43.565Z,100252.70
2018-01-07T22:10:11.138Z,100249.02
2018-01-07T22:12:38.766Z,100252.38
2018-01-07T22:15:06.526Z,100248.48
2018-01-07T22:17:34.099Z,100254.05
2018-01-07T22:20:02.064Z,100256.63
2018-01-07T22:22:29.883Z,100254.34
2018-01-07T22:24:57.701Z,100253.86
2018-01-07T22:27:25.663Z,100256.65
2018-01-07T22:29:53.440Z,100258.92
2018-01-07T22:32:21.257Z,100264.78
2018-01-07T22:34:49.281Z,100270.19
2018-01-07T22:37:17.095Z,100266.23
2018-01-07T22:39:44.914Z,100275.56
2018-01-07T22:42:12.528Z,100267.46
2018-01-07T22:44:40.250Z,100273.77
2018-01-07T22:47:07.859Z,100277.56
2018-01-07T22:49:35.685Z,100277.20
2018-01-07T22:52:03.295Z,100275.28
2018-01-07T22:54:30.865Z,100280.42
2018-01-07T22:56:58.442Z,100280.02
2018-01-07T22:59:26.015Z,100279.20
2018-01-07T23:01:53.586Z,100277.06
2018-01-07T23:04:21.166Z,100270.66
2018-01-07T23:06:48.753Z,100282.66
2018-01-07T23:09:16.316Z,100290.91
2018-01-07T23:11:44.046Z,100288.11
2018-01-07T23:14:11.630Z,100290.11
2018-01-07T23:16:39.206Z,100294.05
2018-01-07T23:19:06.785Z,100286.08
2018-01-07T23:21:34.371Z,100291.72
2018-01-07T23:24:02.117Z,100293.31
2018-01-07T23:26:29.694Z,100292.89
2018-01-07T23:28:57.316Z,100298.23
2018-01-07T23:31:24.882Z,100305.22
2018-01-07T23:33:52.492Z,100299.89
2018-01-07T23:36:20.224Z,100267.41
2018-01-07T23:38:48.045Z,100301.56
2018-01-07T23:41:15.862Z,100303.22
2018-01-07T23:43:43.681Z,100300.66
2018-01-07T23:46:11.249Z,100297.77
2018-01-07T23:48:39.018Z,100294.22
2018-01-07T23:51:06.590Z,100291.42
2018-01-07T23:53:34.272Z,100291.27
2018-01-07T23:56:01.860Z,100295.35
2018-01-07T23:58:29.689Z,100299.06
